首页
METAR-TAF:

METAR-TAF

机场 :

Stanton, 明尼蘇達州, 美国

纬度: 44-28-32N, 经度: 093-00-59W, 海拔: 280米

当前天气观测

该预报发布于1小时和8分钟前的09:59 UTC
风速3节,风向西转西南
温度 1°C
湿度 93%
气压 1018 hPa
能見度: 16.1公里
天空无云

METAR: KSYN 200959Z AUTO 25003KT 10SM CLR 01/00 A3007 RMK AO2

时间: 06:07 (11:07 UTC)


TAF: 丢失

超过4000个机场的气象观测和天气预报(METAR&TAF报告)。

可查询的气象台以黄色和红色小点在地图上表示。

将鼠标移到小点上方,可查看气象台名称。

然后点击查看天气观测和预报。

如需切换地图:点击带黑十字的绿色按钮放大地图;点击带横线的绿色按钮缩小地图;或者点击绿色箭头查看邻近地区的地图。


METAR-TAF: